Historyczne dane pomiarowe

Dodano dane terminowe – wersja testowa.

Dane z okresu 1951-2019

Wersja bazy: 1.34 [2019-03-16, lista zmian], aktualizacja planowana na 2019-04-15

Dane meteo z obszaru Polski uzyskane na podstawie danych udostępnionych przez Instytut Meteorologii i Gospodarki Wodnej – Państwowy Instytut Badawczy.

 

Wybierz Datę:    

       

TemperaturaWilgotnośćWiatrCiśnienieOpadyŚniegCzas trwania zjawisk
 Stacja t tx tn tng RH VA  wxwx mslp ppp RRR   cm mm wxwxwxwxwxwxwx
1956-11-09 -5.8 -0.6 -8.3 -8.8 69.8- 3.7 1.0---- 0.0-- 3---------
1956-11-08 -4.6 -0.4-10.1 -9.6 77.0- 2.3 1.7---- 0.0-- 4---------
1956-11-07 -4.3 0.6 -7.6 -2.7 73.5- 3.3 3.0---- 5.4-- 2---------
1956-11-06 0.1 2.6 -1.6 -1.5 88.0- 6.0 6.0---- 0.1-- 2---------
1956-11-05 2.7 5.5 0.6 0.0 87.8- 8.0 7.0---- 2.3------------
1956-11-04 1.3 3.3 -6.4 -3.4 80.0- 2.0 4.7---- 0.0------------
1956-11-03 0.4 3.2 -5.5 -5.6 91.0- 4.7 3.7---- 0.2------------
1956-11-02 0.6 4.2 -7.2 -6.0 87.8- 4.3 3.7---- 2.2------------
1956-11-01 0.0 2.1 -4.8 -0.4 89.0- 7.3 12.0---- 4.9------------
1956-10-31 -4.6 -1.3-12.3-11.9 77.8- 1.0 3.3---- 0.0------------
1956-10-30 -4.6 -1.3 -6.6 -6.9 79.3- 5.7 6.3---- 0.0------------
1956-10-29 -1.3 4.8 -2.6 0.1 92.8- 7.3 6.7---- 0.2------------
1956-10-28 5.4 7.1 3.3 3.9 97.0- 8.0 5.7---- 6.1------------
1956-10-27 7.2 9.0 6.0 6.9 97.0- 8.0 5.7---- 2.0------------
1956-10-26 7.8 12.0 7.5 8.5 96.3- 8.0 3.0---- 2.7------------
1956-10-25 12.0 15.2 8.9 8.9 85.0- 4.3 7.0---- 0.0------------
1956-10-24 10.0 12.0 7.9 8.5 87.8- 8.0 5.3---- 0.0------------
1956-10-23 9.3 11.2 8.5 8.9 84.5- 6.0 8.0---- 0.1------------
1956-10-22 11.0 13.4 8.9 8.9 80.8- 6.7 10.0---- 0.0------------
1956-10-21 10.6 13.4 7.9 8.1 90.0- 8.0 5.7---- 0.0------------
1956-10-20 8.4 10.9 5.6 4.6 93.8- 7.3 2.0---- 2.2------------
1956-10-19 9.2 12.9 5.7 5.4 96.5- 8.0 2.7---- 0.8------------
1956-10-18 9.1 11.2 4.8 2.6 88.5- 6.0 3.3---- 1.4------------
1956-10-17 6.2 12.9 0.6 -0.1 86.5- 1.7 3.0---- 0.0------------
1956-10-16 5.1 11.6 0.4 -0.4 81.0- 1.3 2.3---- 0.0------------
1956-10-15 4.2 11.5 1.4 0.7 88.3- 1.0 4.7---- 0.0------------
1956-10-14 7.0 10.3 3.9 1.8 81.8- 2.0 10.0---- 0.0------------
1956-10-13 8.7 10.3 7.6 6.6 85.5- 6.0 13.0---- 25.3------------
1956-10-12 9.4 10.5 6.3 6.9 87.3- 5.3 7.7---- 0.0------------
1956-10-11 8.2 10.2 5.1 4.7 92.3- 5.7 5.3---- 0.0------------
1956-10-10 5.0 9.7 -1.5 -2.5 91.5- 3.0 4.0---- 0.0------------
1956-10-09 4.5 8.3 3.2 3.3 85.5- 5.7 4.3---- 0.8------------
1956-10-08 5.6 9.2 2.7 3.3 84.5- 6.0 4.7---- 0.0------------
1956-10-07 6.4 10.2 2.8 2.3 95.3- 7.3 10.7---- 3.7------------
1956-10-06 6.2 9.2 3.4 1.1 92.3- 7.3 4.0---- 25.1------------
1956-10-05 8.4 10.5 2.8 2.8 97.0- 8.0 3.3---- 12.1------------
1956-10-04 9.8 14.3 5.9 3.4 81.3- 5.3 3.7---- 1.1------------
1956-10-03 12.0 15.0 4.2 8.3 89.3- 7.0 5.7---- 0.5------------
1956-10-02 14.4 23.2 9.8 9.1 78.8- 5.7 3.7---- 8.1------------
1956-10-01 12.9 17.7 6.9 4.4 87.0- 3.3 3.0---- 3.3------------
1956-09-30 13.0 17.3 9.5 8.3 81.0- 1.0 7.0---- 0.0------------
1956-09-29 14.8 18.5 10.5 11.2 78.3- 4.7 14.3---- 0.2------------
1956-09-28 14.4 15.7 7.8 8.3 85.3- 5.3 5.0---- 0.0------------
1956-09-27 15.5 22.6 9.2 7.6 65.3- 2.7 6.0---- 0.0------------
1956-09-26 12.6 21.6 6.3 6.5 86.3- 0.0 3.0---- 0.0------------
1956-09-25 12.6 21.5 6.3 0.1 86.3- 0.0 3.0---- 0.0------------
1956-09-24 9.6 17.6 1.8 -2.2 70.8- 0.0 2.7---- 0.0------------
1956-09-23 8.4 14.6 0.4 -0.4 77.0- 1.0 3.0---- 0.0------------
1956-09-22 9.5 17.5 4.3 2.6 86.5- 5.3 2.3---- 0.0------------
1956-09-21 10.2 17.5 2.4 -0.3 81.8- 1.7 2.3---- 0.0------------
1956-09-20 8.6 15.6 5.7 5.3 81.3- 5.3 2.0---- 0.0------------
1956-09-19 8.9 15.2 4.6 3.6 83.0- 2.0 3.3---- 0.0------------
1956-09-18 7.5 14.0 2.6 2.5 86.8- 3.0 1.7---- 0.0------------
1956-09-17 8.0 12.9 4.7 5.5 83.0- 5.7 7.0---- 5.5------------
1956-09-16 9.8 14.0 5.7 4.3 89.0- 5.3 8.0---- 1.4------------
1956-09-15 9.8 15.6 6.7 8.9 86.5- 4.0 7.3---- 0.0------------
1956-09-14 10.0 15.5 5.0 4.2 91.0- 5.3 3.0---- 0.0------------
1956-09-13 9.3 14.9 6.2 7.0 88.3- 2.7 3.7---- 0.6------------
1956-09-12 11.1 14.9 7.9 10.1 88.3- 6.7 5.3---- 6.2------------
1956-09-11 12.7 17.6 9.9 10.2 92.3- 6.3 2.3---- 6.5------------
189.1 ms

 

Źródłem pochodzenia danych jest Instytut Meteorologii i Gospodarki Wodnej – Państwowy Instytut Badawczy. Dane Instytutu Meteorologii i Gospodarki Wodnej – Państwowego Instytutu Badawczego zostały przetworzone.

Dane źródłowe można odnaleźć na stronie https://dane.imgw.pl